sensor_id;sensor_type;location;lat;lon;timestamp;temperature;humidity
20744;DHT22;56303;52.160;-0.428;2023-03-12T00:01:20;6.70;99.90
20744;DHT22;56303;52.160;-0.428;2023-03-12T00:03:48;6.50;99.90
20744;DHT22;56303;52.160;-0.428;2023-03-12T00:06:17;6.60;99.90
20744;DHT22;56303;52.160;-0.428;2023-03-12T00:08:44;6.70;99.90
20744;DHT22;56303;52.160;-0.428;2023-03-12T00:11:13;6.60;99.90
20744;DHT22;56303;52.160;-0.428;2023-03-12T00:13:40;6.70;99.90
20744;DHT22;56303;52.160;-0.428;2023-03-12T00:16:12;6.80;99.90
20744;DHT22;56303;52.160;-0.428;2023-03-12T00:18:40;6.80;99.90
20744;DHT22;56303;52.160;-0.428;2023-03-12T00:21:07;6.90;99.90
20744;DHT22;56303;52.160;-0.428;2023-03-12T00:23:34;6.70;99.90
20744;DHT22;56303;52.160;-0.428;2023-03-12T00:26:10;6.50;99.90
20744;DHT22;56303;52.160;-0.428;2023-03-12T00:28:38;6.80;99.90
20744;DHT22;56303;52.160;-0.428;2023-03-12T00:33:42;6.80;99.90
20744;DHT22;56303;52.160;-0.428;2023-03-12T00:36:09;7.00;99.90
20744;DHT22;56303;52.160;-0.428;2023-03-12T00:38:36;7.20;99.90
20744;DHT22;56303;52.160;-0.428;2023-03-12T00:41:03;7.30;99.90
20744;DHT22;56303;52.160;-0.428;2023-03-12T00:43:30;7.20;99.90
20744;DHT22;56303;52.160;-0.428;2023-03-12T00:45:57;7.30;99.90
20744;DHT22;56303;52.160;-0.428;2023-03-12T00:48:24;7.20;99.90
20744;DHT22;56303;52.160;-0.428;2023-03-12T00:50:51;7.30;99.90
20744;DHT22;56303;52.160;-0.428;2023-03-12T00:53:17;7.30;99.90
20744;DHT22;56303;52.160;-0.428;2023-03-12T00:55:44;7.20;99.90
20744;DHT22;56303;52.160;-0.428;2023-03-12T00:58:11;7.10;99.90
20744;DHT22;56303;52.160;-0.428;2023-03-12T01:00:38;7.40;99.90
20744;DHT22;56303;52.160;-0.428;2023-03-12T01:03:05;7.60;99.90
20744;DHT22;56303;52.160;-0.428;2023-03-12T01:05:32;7.50;99.90
20744;DHT22;56303;52.160;-0.428;2023-03-12T01:08:04;7.00;99.90
20744;DHT22;56303;52.160;-0.428;2023-03-12T01:10:31;7.40;99.90
20744;DHT22;56303;52.160;-0.428;2023-03-12T01:12:58;7.60;99.90
20744;DHT22;56303;52.160;-0.428;2023-03-12T01:15:25;7.80;99.90
20744;DHT22;56303;52.160;-0.428;2023-03-12T01:17:51;7.60;99.90
20744;DHT22;56303;52.160;-0.428;2023-03-12T01:20:18;7.70;99.90
20744;DHT22;56303;52.160;-0.428;2023-03-12T01:22:45;7.80;99.90
20744;DHT22;56303;52.160;-0.428;2023-03-12T01:25:12;7.90;99.90
20744;DHT22;56303;52.160;-0.428;2023-03-12T01:27:39;8.00;99.90
20744;DHT22;56303;52.160;-0.428;2023-03-12T01:30:06;7.80;99.90
20744;DHT22;56303;52.160;-0.428;2023-03-12T01:32:33;8.00;99.90
20744;DHT22;56303;52.160;-0.428;2023-03-12T01:35:00;8.10;99.90
20744;DHT22;56303;52.160;-0.428;2023-03-12T01:37:27;8.10;99.90
20744;DHT22;56303;52.160;-0.428;2023-03-12T01:39:54;8.00;99.90
20744;DHT22;56303;52.160;-0.428;2023-03-12T01:42:20;8.00;99.90
20744;DHT22;56303;52.160;-0.428;2023-03-12T01:44:53;7.90;99.90
20744;DHT22;56303;52.160;-0.428;2023-03-12T01:47:20;8.10;99.90
20744;DHT22;56303;52.160;-0.428;2023-03-12T01:49:49;8.10;99.90
20744;DHT22;56303;52.160;-0.428;2023-03-12T01:55:00;7.90;99.90
20744;DHT22;56303;52.160;-0.428;2023-03-12T01:57:48;8.10;99.90
20744;DHT22;56303;52.160;-0.428;2023-03-12T02:00:19;8.30;99.90
20744;DHT22;56303;52.160;-0.428;2023-03-12T02:02:47;8.50;99.90
20744;DHT22;56303;52.160;-0.428;2023-03-12T02:05:26;8.30;99.90
20744;DHT22;56303;52.160;-0.428;2023-03-12T02:07:54;8.30;99.90
20744;DHT22;56303;52.160;-0.428;2023-03-12T02:10:23;8.40;99.90
20744;DHT22;56303;52.160;-0.428;2023-03-12T02:12:51;8.50;99.90
20744;DHT22;56303;52.160;-0.428;2023-03-12T02:15:18;8.70;99.90
20744;DHT22;56303;52.160;-0.428;2023-03-12T02:17:45;8.60;99.90
20744;DHT22;56303;52.160;-0.428;2023-03-12T02:20:17;8.50;99.90
20744;DHT22;56303;52.160;-0.428;2023-03-12T02:22:53;8.60;99.90
20744;DHT22;56303;52.160;-0.428;2023-03-12T02:25:34;8.60;99.90
20744;DHT22;56303;52.160;-0.428;2023-03-12T02:28:06;8.80;99.90
20744;DHT22;56303;52.160;-0.428;2023-03-12T02:30:34;8.80;99.90
20744;DHT22;56303;52.160;-0.428;2023-03-12T02:33:06;8.90;99.90
20744;DHT22;56303;52.160;-0.428;2023-03-12T02:35:33;8.90;99.90
20744;DHT22;56303;52.160;-0.428;2023-03-12T02:38:02;8.80;99.90
20744;DHT22;56303;52.160;-0.428;2023-03-12T02:40:41;8.60;99.90
20744;DHT22;56303;52.160;-0.428;2023-03-12T02:43:09;9.00;99.90
20744;DHT22;56303;52.160;-0.428;2023-03-12T02:45:37;8.80;99.90
20744;DHT22;56303;52.160;-0.428;2023-03-12T02:48:07;8.80;99.90
20744;DHT22;56303;52.160;-0.428;2023-03-12T02:50:34;8.90;99.90
20744;DHT22;56303;52.160;-0.428;2023-03-12T02:53:01;9.00;99.90
20744;DHT22;56303;52.160;-0.428;2023-03-12T02:55:28;9.00;99.90
20744;DHT22;56303;52.160;-0.428;2023-03-12T02:57:54;8.90;99.90
20744;DHT22;56303;52.160;-0.428;2023-03-12T03:00:21;8.80;99.90
20744;DHT22;56303;52.160;-0.428;2023-03-12T03:02:48;8.80;99.90
20744;DHT22;56303;52.160;-0.428;2023-03-12T03:05:15;8.90;99.90
20744;DHT22;56303;52.160;-0.428;2023-03-12T03:07:42;8.80;99.90
20744;DHT22;56303;52.160;-0.428;2023-03-12T03:10:09;8.80;99.90
20744;DHT22;56303;52.160;-0.428;2023-03-12T03:12:36;8.80;99.90
20744;DHT22;56303;52.160;-0.428;2023-03-12T03:15:04;9.00;99.90
20744;DHT22;56303;52.160;-0.428;2023-03-12T03:17:31;8.90;99.90
20744;DHT22;56303;52.160;-0.428;2023-03-12T03:19:57;8.80;99.90
20744;DHT22;56303;52.160;-0.428;2023-03-12T03:22:24;8.70;99.90
20744;DHT22;56303;52.160;-0.428;2023-03-12T03:24:52;8.80;99.90
20744;DHT22;56303;52.160;-0.428;2023-03-12T03:27:19;8.80;99.90
20744;DHT22;56303;52.160;-0.428;2023-03-12T03:29:46;8.70;99.90
20744;DHT22;56303;52.160;-0.428;2023-03-12T03:32:13;8.80;99.90
20744;DHT22;56303;52.160;-0.428;2023-03-12T03:34:39;8.90;99.90
20744;DHT22;56303;52.160;-0.428;2023-03-12T03:37:06;8.70;99.90
20744;DHT22;56303;52.160;-0.428;2023-03-12T03:39:33;8.80;99.90
20744;DHT22;56303;52.160;-0.428;2023-03-12T03:42:00;8.90;99.90
20744;DHT22;56303;52.160;-0.428;2023-03-12T03:44:27;8.80;99.90
20744;DHT22;56303;52.160;-0.428;2023-03-12T03:46:54;8.80;99.90
20744;DHT22;56303;52.160;-0.428;2023-03-12T03:49:21;8.80;99.90
20744;DHT22;56303;52.160;-0.428;2023-03-12T03:51:48;8.60;99.90
20744;DHT22;56303;52.160;-0.428;2023-03-12T03:54:17;8.60;99.90
20744;DHT22;56303;52.160;-0.428;2023-03-12T03:56:44;8.70;99.90
20744;DHT22;56303;52.160;-0.428;2023-03-12T03:59:11;8.70;99.90
20744;DHT22;56303;52.160;-0.428;2023-03-12T04:01:38;8.60;99.90
20744;DHT22;56303;52.160;-0.428;2023-03-12T04:04:05;8.60;99.90
20744;DHT22;56303;52.160;-0.428;2023-03-12T04:06:32;8.40;99.90
20744;DHT22;56303;52.160;-0.428;2023-03-12T04:08:59;8.40;99.90
20744;DHT22;56303;52.160;-0.428;2023-03-12T04:11:26;8.50;99.90
20744;DHT22;56303;52.160;-0.428;2023-03-12T04:13:53;8.60;99.90
20744;DHT22;56303;52.160;-0.428;2023-03-12T04:16:20;8.60;99.90
20744;DHT22;56303;52.160;-0.428;2023-03-12T04:18:47;8.50;99.90
20744;DHT22;56303;52.160;-0.428;2023-03-12T04:21:14;8.40;99.90
20744;DHT22;56303;52.160;-0.428;2023-03-12T04:23:41;8.40;99.90
20744;DHT22;56303;52.160;-0.428;2023-03-12T04:26:08;8.40;99.90
20744;DHT22;56303;52.160;-0.428;2023-03-12T04:28:35;8.40;99.90
20744;DHT22;56303;52.160;-0.428;2023-03-12T04:31:05;8.50;99.90
20744;DHT22;56303;52.160;-0.428;2023-03-12T04:33:35;8.50;99.90
20744;DHT22;56303;52.160;-0.428;2023-03-12T04:36:02;8.50;99.90
20744;DHT22;56303;52.160;-0.428;2023-03-12T04:38:29;8.40;99.90
20744;DHT22;56303;52.160;-0.428;2023-03-12T04:41:04;8.50;99.90
20744;DHT22;56303;52.160;-0.428;2023-03-12T04:43:33;8.40;99.90
20744;DHT22;56303;52.160;-0.428;2023-03-12T04:46:00;8.50;99.90
20744;DHT22;56303;52.160;-0.428;2023-03-12T04:48:28;8.50;99.90
20744;DHT22;56303;52.160;-0.428;2023-03-12T04:50:55;8.20;99.90
20744;DHT22;56303;52.160;-0.428;2023-03-12T04:53:22;8.20;99.90
20744;DHT22;56303;52.160;-0.428;2023-03-12T04:55:50;8.10;99.90
20744;DHT22;56303;52.160;-0.428;2023-03-12T04:58:17;8.20;99.90
20744;DHT22;56303;52.160;-0.428;2023-03-12T05:00:46;8.20;99.90
20744;DHT22;56303;52.160;-0.428;2023-03-12T05:03:13;8.10;99.90
20744;DHT22;56303;52.160;-0.428;2023-03-12T05:05:40;8.30;99.90
20744;DHT22;56303;52.160;-0.428;2023-03-12T05:08:07;8.10;99.90
20744;DHT22;56303;52.160;-0.428;2023-03-12T05:10:34;8.20;99.90
20744;DHT22;56303;52.160;-0.428;2023-03-12T05:13:01;8.20;99.90
20744;DHT22;56303;52.160;-0.428;2023-03-12T05:15:28;8.00;99.90
20744;DHT22;56303;52.160;-0.428;2023-03-12T05:17:54;8.10;99.90
20744;DHT22;56303;52.160;-0.428;2023-03-12T05:20:21;8.10;99.90
20744;DHT22;56303;52.160;-0.428;2023-03-12T05:22:48;8.10;99.90
20744;DHT22;56303;52.160;-0.428;2023-03-12T05:25:15;8.00;99.90
20744;DHT22;56303;52.160;-0.428;2023-03-12T05:27:42;8.10;99.90
20744;DHT22;56303;52.160;-0.428;2023-03-12T05:30:09;8.30;99.90
20744;DHT22;56303;52.160;-0.428;2023-03-12T05:32:37;8.20;99.90
20744;DHT22;56303;52.160;-0.428;2023-03-12T05:35:04;8.20;99.90
20744;DHT22;56303;52.160;-0.428;2023-03-12T05:37:31;8.30;99.90
20744;DHT22;56303;52.160;-0.428;2023-03-12T05:39:58;8.30;99.90
20744;DHT22;56303;52.160;-0.428;2023-03-12T05:42:26;8.30;99.90
20744;DHT22;56303;52.160;-0.428;2023-03-12T05:44:53;8.30;99.90
20744;DHT22;56303;52.160;-0.428;2023-03-12T05:47:20;8.30;99.90
20744;DHT22;56303;52.160;-0.428;2023-03-12T05:49:47;8.40;99.90
20744;DHT22;56303;52.160;-0.428;2023-03-12T05:52:13;8.50;99.90
20744;DHT22;56303;52.160;-0.428;2023-03-12T05:54:40;8.50;99.90
20744;DHT22;56303;52.160;-0.428;2023-03-12T05:57:07;8.50;99.90
20744;DHT22;56303;52.160;-0.428;2023-03-12T05:59:34;8.50;99.90
20744;DHT22;56303;52.160;-0.428;2023-03-12T06:02:01;8.50;99.90
20744;DHT22;56303;52.160;-0.428;2023-03-12T06:04:28;8.40;99.90
20744;DHT22;56303;52.160;-0.428;2023-03-12T06:06:55;8.60;99.90
20744;DHT22;56303;52.160;-0.428;2023-03-12T06:09:22;8.70;99.90
20744;DHT22;56303;52.160;-0.428;2023-03-12T06:11:48;8.60;99.90
20744;DHT22;56303;52.160;-0.428;2023-03-12T06:14:15;8.80;99.90
20744;DHT22;56303;52.160;-0.428;2023-03-12T06:16:42;8.70;99.90
20744;DHT22;56303;52.160;-0.428;2023-03-12T06:19:10;8.70;99.90
20744;DHT22;56303;52.160;-0.428;2023-03-12T06:21:41;8.20;99.90
20744;DHT22;56303;52.160;-0.428;2023-03-12T06:24:08;8.90;99.90
20744;DHT22;56303;52.160;-0.428;2023-03-12T06:26:36;8.80;99.90
20744;DHT22;56303;52.160;-0.428;2023-03-12T06:29:02;8.60;99.90
20744;DHT22;56303;52.160;-0.428;2023-03-12T06:31:29;8.70;99.90
20744;DHT22;56303;52.160;-0.428;2023-03-12T06:33:56;8.70;99.90
20744;DHT22;56303;52.160;-0.428;2023-03-12T06:36:23;8.80;99.90
20744;DHT22;56303;52.160;-0.428;2023-03-12T06:38:51;8.60;99.90
20744;DHT22;56303;52.160;-0.428;2023-03-12T06:41:18;8.80;99.90
20744;DHT22;56303;52.160;-0.428;2023-03-12T06:43:47;8.70;99.90
20744;DHT22;56303;52.160;-0.428;2023-03-12T06:46:16;8.80;99.90
20744;DHT22;56303;52.160;-0.428;2023-03-12T06:48:43;8.80;99.90
20744;DHT22;56303;52.160;-0.428;2023-03-12T06:51:14;8.90;99.90
20744;DHT22;56303;52.160;-0.428;2023-03-12T06:53:41;8.90;99.90
20744;DHT22;56303;52.160;-0.428;2023-03-12T06:56:09;9.00;99.90
20744;DHT22;56303;52.160;-0.428;2023-03-12T06:58:36;9.00;99.90
20744;DHT22;56303;52.160;-0.428;2023-03-12T07:01:04;9.10;99.90
20744;DHT22;56303;52.160;-0.428;2023-03-12T07:03:31;9.10;99.90
20744;DHT22;56303;52.160;-0.428;2023-03-12T07:05:58;9.20;99.90
20744;DHT22;56303;52.160;-0.428;2023-03-12T07:08:27;9.30;99.90
20744;DHT22;56303;52.160;-0.428;2023-03-12T07:10:57;9.30;99.90
20744;DHT22;56303;52.160;-0.428;2023-03-12T07:13:27;9.20;99.90
20744;DHT22;56303;52.160;-0.428;2023-03-12T07:15:54;9.60;99.90
20744;DHT22;56303;52.160;-0.428;2023-03-12T07:18:21;9.30;99.90
20744;DHT22;56303;52.160;-0.428;2023-03-12T07:20:48;9.30;99.90
20744;DHT22;56303;52.160;-0.428;2023-03-12T07:23:15;9.30;99.90
20744;DHT22;56303;52.160;-0.428;2023-03-12T07:25:42;9.30;99.90
20744;DHT22;56303;52.160;-0.428;2023-03-12T07:28:10;9.30;99.90
20744;DHT22;56303;52.160;-0.428;2023-03-12T07:30:38;9.40;99.90
20744;DHT22;56303;52.160;-0.428;2023-03-12T07:33:10;9.40;99.90
20744;DHT22;56303;52.160;-0.428;2023-03-12T07:35:38;9.30;99.90
20744;DHT22;56303;52.160;-0.428;2023-03-12T07:38:06;9.40;99.90
20744;DHT22;56303;52.160;-0.428;2023-03-12T07:40:33;9.30;99.90
20744;DHT22;56303;52.160;-0.428;2023-03-12T07:43:02;9.30;99.90
20744;DHT22;56303;52.160;-0.428;2023-03-12T07:45:32;9.50;99.90
20744;DHT22;56303;52.160;-0.428;2023-03-12T07:47:58;9.50;99.90
20744;DHT22;56303;52.160;-0.428;2023-03-12T07:50:25;9.60;99.90
20744;DHT22;56303;52.160;-0.428;2023-03-12T07:52:52;9.60;99.90
20744;DHT22;56303;52.160;-0.428;2023-03-12T07:55:19;9.10;99.90
20744;DHT22;56303;52.160;-0.428;2023-03-12T07:57:46;9.60;99.90
20744;DHT22;56303;52.160;-0.428;2023-03-12T08:00:13;9.60;99.90
20744;DHT22;56303;52.160;-0.428;2023-03-12T08:02:40;9.60;99.90
20744;DHT22;56303;52.160;-0.428;2023-03-12T08:05:08;9.80;99.90
20744;DHT22;56303;52.160;-0.428;2023-03-12T08:07:35;10.00;99.90
20744;DHT22;56303;52.160;-0.428;2023-03-12T08:10:05;10.00;99.90
20744;DHT22;56303;52.160;-0.428;2023-03-12T08:12:32;9.90;99.90
20744;DHT22;56303;52.160;-0.428;2023-03-12T08:14:59;9.80;99.90
20744;DHT22;56303;52.160;-0.428;2023-03-12T08:17:26;9.80;99.90
20744;DHT22;56303;52.160;-0.428;2023-03-12T08:19:55;9.90;99.90
20744;DHT22;56303;52.160;-0.428;2023-03-12T08:22:23;9.90;99.90
20744;DHT22;56303;52.160;-0.428;2023-03-12T08:24:49;9.90;99.90
20744;DHT22;56303;52.160;-0.428;2023-03-12T08:27:16;10.00;99.90
20744;DHT22;56303;52.160;-0.428;2023-03-12T08:29:43;10.10;99.90
20744;DHT22;56303;52.160;-0.428;2023-03-12T08:32:10;10.00;99.90
20744;DHT22;56303;52.160;-0.428;2023-03-12T08:34:37;10.20;99.90
20744;DHT22;56303;52.160;-0.428;2023-03-12T08:37:04;10.20;99.90
20744;DHT22;56303;52.160;-0.428;2023-03-12T08:39:32;10.00;99.90
20744;DHT22;56303;52.160;-0.428;2023-03-12T08:41:59;10.10;99.90
20744;DHT22;56303;52.160;-0.428;2023-03-12T08:44:26;10.00;99.90
20744;DHT22;56303;52.160;-0.428;2023-03-12T08:46:53;10.20;99.90
20744;DHT22;56303;52.160;-0.428;2023-03-12T08:49:20;10.20;99.90
20744;DHT22;56303;52.160;-0.428;2023-03-12T08:51:47;10.20;99.90
20744;DHT22;56303;52.160;-0.428;2023-03-12T08:54:14;10.30;99.90
20744;DHT22;56303;52.160;-0.428;2023-03-12T08:56:41;10.60;99.90
20744;DHT22;56303;52.160;-0.428;2023-03-12T08:59:12;10.50;99.90
20744;DHT22;56303;52.160;-0.428;2023-03-12T09:01:39;10.50;99.90
20744;DHT22;56303;52.160;-0.428;2023-03-12T09:04:09;10.30;99.90
20744;DHT22;56303;52.160;-0.428;2023-03-12T09:06:36;10.40;99.90
20744;DHT22;56303;52.160;-0.428;2023-03-12T09:09:04;10.30;99.90
20744;DHT22;56303;52.160;-0.428;2023-03-12T09:11:32;10.40;99.90
20744;DHT22;56303;52.160;-0.428;2023-03-12T09:14:00;10.40;99.90
20744;DHT22;56303;52.160;-0.428;2023-03-12T09:16:48;10.40;99.90
20744;DHT22;56303;52.160;-0.428;2023-03-12T09:19:15;10.50;99.90
20744;DHT22;56303;52.160;-0.428;2023-03-12T09:21:42;10.60;99.90
20744;DHT22;56303;52.160;-0.428;2023-03-12T09:24:10;10.00;99.90
20744;DHT22;56303;52.160;-0.428;2023-03-12T09:26:36;10.30;99.90
20744;DHT22;56303;52.160;-0.428;2023-03-12T09:29:03;10.40;99.90
20744;DHT22;56303;52.160;-0.428;2023-03-12T09:31:31;10.60;99.90
20744;DHT22;56303;52.160;-0.428;2023-03-12T09:33:58;10.60;99.90
20744;DHT22;56303;52.160;-0.428;2023-03-12T09:36:24;10.50;99.90
20744;DHT22;56303;52.160;-0.428;2023-03-12T09:38:51;10.50;99.90
20744;DHT22;56303;52.160;-0.428;2023-03-12T09:41:30;10.50;99.90
20744;DHT22;56303;52.160;-0.428;2023-03-12T09:44:08;10.50;99.90
20744;DHT22;56303;52.160;-0.428;2023-03-12T09:46:49;10.90;99.90
20744;DHT22;56303;52.160;-0.428;2023-03-12T09:49:21;10.70;99.90
20744;DHT22;56303;52.160;-0.428;2023-03-12T09:51:54;10.60;99.90
20744;DHT22;56303;52.160;-0.428;2023-03-12T09:57:25;11.10;99.90
20744;DHT22;56303;52.160;-0.428;2023-03-12T09:59:53;11.20;99.90
20744;DHT22;56303;52.160;-0.428;2023-03-12T10:05:10;11.20;99.90
20744;DHT22;56303;52.160;-0.428;2023-03-12T10:07:45;11.30;99.90
20744;DHT22;56303;52.160;-0.428;2023-03-12T10:10:31;11.40;99.90
20744;DHT22;56303;52.160;-0.428;2023-03-12T10:13:39;11.60;99.90
20744;DHT22;56303;52.160;-0.428;2023-03-12T10:16:12;11.50;99.90
20744;DHT22;56303;52.160;-0.428;2023-03-12T10:21:34;11.60;99.90
20744;DHT22;56303;52.160;-0.428;2023-03-12T10:26:43;11.70;99.90
20744;DHT22;56303;52.160;-0.428;2023-03-12T10:29:25;11.70;99.90
20744;DHT22;56303;52.160;-0.428;2023-03-12T10:34:43;11.80;99.90
20744;DHT22;56303;52.160;-0.428;2023-03-12T10:37:34;11.80;99.90
20744;DHT22;56303;52.160;-0.428;2023-03-12T10:40:03;12.20;99.90
20744;DHT22;56303;52.160;-0.428;2023-03-12T10:42:31;12.40;99.90
20744;DHT22;56303;52.160;-0.428;2023-03-12T10:45:13;12.60;99.90
20744;DHT22;56303;52.160;-0.428;2023-03-12T10:47:43;12.60;99.90
20744;DHT22;56303;52.160;-0.428;2023-03-12T10:50:18;12.60;99.90
20744;DHT22;56303;52.160;-0.428;2023-03-12T10:52:47;13.00;99.90
20744;DHT22;56303;52.160;-0.428;2023-03-12T10:55:28;13.10;99.90
20744;DHT22;56303;52.160;-0.428;2023-03-12T10:57:56;12.80;99.90
20744;DHT22;56303;52.160;-0.428;2023-03-12T11:00:28;13.00;99.90
20744;DHT22;56303;52.160;-0.428;2023-03-12T11:03:01;13.10;99.90
20744;DHT22;56303;52.160;-0.428;2023-03-12T11:07:58;13.20;99.90
20744;DHT22;56303;52.160;-0.428;2023-03-12T11:10:44;13.30;99.90
20744;DHT22;56303;52.160;-0.428;2023-03-12T11:13:38;13.30;99.90
20744;DHT22;56303;52.160;-0.428;2023-03-12T11:19:02;13.30;99.90
20744;DHT22;56303;52.160;-0.428;2023-03-12T11:21:31;13.30;99.90
20744;DHT22;56303;52.160;-0.428;2023-03-12T11:29:21;14.00;99.90
20744;DHT22;56303;52.160;-0.428;2023-03-12T11:34:40;13.60;99.90
20744;DHT22;56303;52.160;-0.428;2023-03-12T11:45:29;13.50;99.90
20744;DHT22;56303;52.160;-0.428;2023-03-12T11:51:34;14.20;99.90
20744;DHT22;56303;52.160;-0.428;2023-03-12T12:13:10;13.60;99.90
20744;DHT22;56303;52.160;-0.428;2023-03-12T12:24:12;14.10;99.90
20744;DHT22;56303;52.160;-0.428;2023-03-12T12:26:52;14.00;99.90
20744;DHT22;56303;52.160;-0.428;2023-03-12T12:35:26;14.40;99.90
20744;DHT22;56303;52.160;-0.428;2023-03-12T12:37:57;14.40;99.90
20744;DHT22;56303;52.160;-0.428;2023-03-12T12:40:31;14.10;99.90
20744;DHT22;56303;52.160;-0.428;2023-03-12T12:45:48;14.30;99.90
20744;DHT22;56303;52.160;-0.428;2023-03-12T12:48:26;14.30;99.90
20744;DHT22;56303;52.160;-0.428;2023-03-12T12:50:54;14.20;99.90
20744;DHT22;56303;52.160;-0.428;2023-03-12T12:53:31;14.10;99.90
20744;DHT22;56303;52.160;-0.428;2023-03-12T12:56:18;14.10;99.90
20744;DHT22;56303;52.160;-0.428;2023-03-12T13:01:34;14.10;99.90
20744;DHT22;56303;52.160;-0.428;2023-03-12T13:04:09;14.00;99.90
20744;DHT22;56303;52.160;-0.428;2023-03-12T13:09:22;13.60;99.90
20744;DHT22;56303;52.160;-0.428;2023-03-12T13:11:49;13.50;99.90
20744;DHT22;56303;52.160;-0.428;2023-03-12T13:14:33;13.40;99.90
20744;DHT22;56303;52.160;-0.428;2023-03-12T13:19:47;13.50;99.90
20744;DHT22;56303;52.160;-0.428;2023-03-12T13:22:37;13.70;99.90
20744;DHT22;56303;52.160;-0.428;2023-03-12T13:28:29;13.30;99.90
20744;DHT22;56303;52.160;-0.428;2023-03-12T13:31:03;13.30;99.90
20744;DHT22;56303;52.160;-0.428;2023-03-12T13:33:50;13.30;99.90
20744;DHT22;56303;52.160;-0.428;2023-03-12T13:41:38;13.90;99.90
20744;DHT22;56303;52.160;-0.428;2023-03-12T13:55:25;13.80;99.90
20744;DHT22;56303;52.160;-0.428;2023-03-12T14:00:28;14.00;99.90
20744;DHT22;56303;52.160;-0.428;2023-03-12T14:03:15;14.00;99.90
20744;DHT22;56303;52.160;-0.428;2023-03-12T14:05:49;14.10;99.90
20744;DHT22;56303;52.160;-0.428;2023-03-12T14:08:49;14.10;99.90
20744;DHT22;56303;52.160;-0.428;2023-03-12T14:16:55;14.30;99.90
20744;DHT22;56303;52.160;-0.428;2023-03-12T14:19:25;14.40;99.90
20744;DHT22;56303;52.160;-0.428;2023-03-12T14:21:53;14.00;99.90
20744;DHT22;56303;52.160;-0.428;2023-03-12T14:24:27;13.90;99.90
20744;DHT22;56303;52.160;-0.428;2023-03-12T14:26:56;13.80;99.90
20744;DHT22;56303;52.160;-0.428;2023-03-12T14:32:16;13.70;99.90
20744;DHT22;56303;52.160;-0.428;2023-03-12T14:34:46;13.80;99.90
20744;DHT22;56303;52.160;-0.428;2023-03-12T14:37:19;14.00;99.90
20744;DHT22;56303;52.160;-0.428;2023-03-12T14:39:57;14.10;99.90
20744;DHT22;56303;52.160;-0.428;2023-03-12T14:42:33;14.00;99.90
20744;DHT22;56303;52.160;-0.428;2023-03-12T14:45:16;14.20;99.90
20744;DHT22;56303;52.160;-0.428;2023-03-12T14:47:45;14.40;99.90
20744;DHT22;56303;52.160;-0.428;2023-03-12T14:50:21;14.70;99.90
20744;DHT22;56303;52.160;-0.428;2023-03-12T14:52:49;14.70;99.90
20744;DHT22;56303;52.160;-0.428;2023-03-12T14:55:21;14.70;99.90
20744;DHT22;56303;52.160;-0.428;2023-03-12T14:57:49;14.50;99.90
20744;DHT22;56303;52.160;-0.428;2023-03-12T15:00:28;14.50;99.90
20744;DHT22;56303;52.160;-0.428;2023-03-12T15:02:57;14.40;99.90
20744;DHT22;56303;52.160;-0.428;2023-03-12T15:05:24;14.20;99.90
20744;DHT22;56303;52.160;-0.428;2023-03-12T15:07:57;14.30;99.90
20744;DHT22;56303;52.160;-0.428;2023-03-12T15:10:27;14.50;99.90
20744;DHT22;56303;52.160;-0.428;2023-03-12T15:12:57;14.40;99.90
20744;DHT22;56303;52.160;-0.428;2023-03-12T15:17:54;13.80;99.90
20744;DHT22;56303;52.160;-0.428;2023-03-12T15:20:22;13.70;99.90
20744;DHT22;56303;52.160;-0.428;2023-03-12T15:22:51;13.70;99.90
20744;DHT22;56303;52.160;-0.428;2023-03-12T15:25:23;13.60;99.90
20744;DHT22;56303;52.160;-0.428;2023-03-12T15:28:06;13.60;99.90
20744;DHT22;56303;52.160;-0.428;2023-03-12T15:30:34;13.70;99.90
20744;DHT22;56303;52.160;-0.428;2023-03-12T15:35:37;13.70;99.90
20744;DHT22;56303;52.160;-0.428;2023-03-12T15:38:05;13.70;99.90
20744;DHT22;56303;52.160;-0.428;2023-03-12T15:40:39;13.80;99.90
20744;DHT22;56303;52.160;-0.428;2023-03-12T15:43:16;13.80;99.90
20744;DHT22;56303;52.160;-0.428;2023-03-12T15:45:43;13.80;99.90
20744;DHT22;56303;52.160;-0.428;2023-03-12T15:48:22;13.90;99.90
20744;DHT22;56303;52.160;-0.428;2023-03-12T15:50:52;14.20;99.90
20744;DHT22;56303;52.160;-0.428;2023-03-12T15:56:05;14.00;99.90
20744;DHT22;56303;52.160;-0.428;2023-03-12T15:58:34;13.80;99.90
20744;DHT22;56303;52.160;-0.428;2023-03-12T16:01:15;13.90;99.90
20744;DHT22;56303;52.160;-0.428;2023-03-12T16:03:44;13.80;99.90
20744;DHT22;56303;52.160;-0.428;2023-03-12T16:06:16;13.80;99.90
20744;DHT22;56303;52.160;-0.428;2023-03-12T16:08:58;13.70;99.90
20744;DHT22;56303;52.160;-0.428;2023-03-12T16:11:30;13.40;99.90
20744;DHT22;56303;52.160;-0.428;2023-03-12T16:14:19;13.50;99.90
20744;DHT22;56303;52.160;-0.428;2023-03-12T16:16:48;13.50;99.90
20744;DHT22;56303;52.160;-0.428;2023-03-12T16:19:17;13.40;99.90
20744;DHT22;56303;52.160;-0.428;2023-03-12T16:21:44;13.20;99.90
20744;DHT22;56303;52.160;-0.428;2023-03-12T16:24:11;13.00;99.90
20744;DHT22;56303;52.160;-0.428;2023-03-12T16:26:58;12.90;99.90
20744;DHT22;56303;52.160;-0.428;2023-03-12T16:29:33;12.90;99.90
20744;DHT22;56303;52.160;-0.428;2023-03-12T16:32:01;12.90;99.90
20744;DHT22;56303;52.160;-0.428;2023-03-12T16:34:34;13.20;99.90
20744;DHT22;56303;52.160;-0.428;2023-03-12T16:37:01;13.00;99.90
20744;DHT22;56303;52.160;-0.428;2023-03-12T16:39:28;13.10;99.90
20744;DHT22;56303;52.160;-0.428;2023-03-12T16:42:02;13.10;99.90
20744;DHT22;56303;52.160;-0.428;2023-03-12T16:44:33;13.00;99.90
20744;DHT22;56303;52.160;-0.428;2023-03-12T16:47:00;12.90;99.90
20744;DHT22;56303;52.160;-0.428;2023-03-12T16:49:27;12.90;99.90
20744;DHT22;56303;52.160;-0.428;2023-03-12T16:51:54;12.80;99.90
20744;DHT22;56303;52.160;-0.428;2023-03-12T16:54:21;12.70;99.90
20744;DHT22;56303;52.160;-0.428;2023-03-12T16:56:48;12.60;99.90
20744;DHT22;56303;52.160;-0.428;2023-03-12T16:59:27;12.50;99.90
20744;DHT22;56303;52.160;-0.428;2023-03-12T17:01:57;12.70;99.90
20744;DHT22;56303;52.160;-0.428;2023-03-12T17:04:24;12.50;99.90
20744;DHT22;56303;52.160;-0.428;2023-03-12T17:06:51;12.30;99.90
20744;DHT22;56303;52.160;-0.428;2023-03-12T17:09:18;12.30;99.90
20744;DHT22;56303;52.160;-0.428;2023-03-12T17:11:44;12.40;99.90
20744;DHT22;56303;52.160;-0.428;2023-03-12T17:14:20;12.30;99.90
20744;DHT22;56303;52.160;-0.428;2023-03-12T17:16:48;12.40;99.90
20744;DHT22;56303;52.160;-0.428;2023-03-12T17:19:15;12.20;99.90
20744;DHT22;56303;52.160;-0.428;2023-03-12T17:21:42;12.20;99.90
20744;DHT22;56303;52.160;-0.428;2023-03-12T17:24:10;12.30;99.90
20744;DHT22;56303;52.160;-0.428;2023-03-12T17:26:41;12.30;99.90
20744;DHT22;56303;52.160;-0.428;2023-03-12T17:29:08;12.30;99.90
20744;DHT22;56303;52.160;-0.428;2023-03-12T17:31:35;12.20;99.90
20744;DHT22;56303;52.160;-0.428;2023-03-12T17:34:03;12.40;99.90
20744;DHT22;56303;52.160;-0.428;2023-03-12T17:36:30;12.30;99.90
20744;DHT22;56303;52.160;-0.428;2023-03-12T17:38:57;12.20;99.90
20744;DHT22;56303;52.160;-0.428;2023-03-12T17:41:24;12.20;99.90
20744;DHT22;56303;52.160;-0.428;2023-03-12T17:43:54;12.20;99.90
20744;DHT22;56303;52.160;-0.428;2023-03-12T17:46:24;12.20;99.90
20744;DHT22;56303;52.160;-0.428;2023-03-12T17:48:51;12.10;99.90